AirNav   Duncan Aviation - Near you to keep you flying
 
 1068 users online  

NA81 Central Valley Aviation Airport
Buxton, North Dakota, USA

GOING TO BUXTON?


FAA INFORMATION EFFECTIVE 01 DECEMBER 2022

Location

FAA Identifier: NA81
Lat/Long: 47-37-41.9240N 097-05-11.3060W
47-37.698733N 097-05.188433W
47.6283122,-97.0864739
(estimated)
Elevation: 920 ft. / 280 m (estimated)
Variation: 06E (1985)
From city: 2 miles NE of BUXTON, ND
Time zone: UTC -6 (UTC -5 during Daylight Saving Time)
Zip code: 58218

Airport Operations

Airport use: Private use, PERSONAL USE.
Activation date: 08/1982
Control tower: no
ARTCC: MINNEAPOLIS CENTER
FSS: GRAND FORKS FLIGHT SERVICE STATION
Attendance: UNATNDD
Segmented circle: no

Airport Communications

WX ASOS at GFK (19 nm N): PHONE 701-772-3486

Nearby radio navigation aids

VOR radial/distance  VOR name  Freq  Var
GFKr159/20.0GRAND FORKS VOR/DME114.3009E

 
NDB name  Hdg/Dist  Freq  Var  ID
HISER158/13.634506EGF --. ..-.

Airport Services

Fuel available: 100 JET-A

Runway Information

Runway 9/27

Dimensions: 2000 x 16 ft. / 610 x 5 m
Surface: asphalt
RUNWAY 9  RUNWAY 27
Traffic pattern: leftleft
Obstructions: road, 30 ft. from runway30 ft. road, 50 ft. from runway

Airport Ownership and Management from official FAA records

Ownership: Privately-owned
Owner: GREG TROFTGRUBEN
P O BOX 146
BUXTON, ND 58218
Phone 218-779-0278
Manager: GREG TROFTGRUBEN
P O BOX 146
BUXTON, ND 58218
Phone 218-779-0278

Airport Operational Statistics

Aircraft based on the field: 3
Single engine airplanes: 3
    

Additional Remarks

TREES PARALLEL AND SOUTH OF RWY CNTRLN.
300 FT TWR 1 MI N OFF E END RY; 60 FT TWR 400 FT OFF E END RY.
FOR CD CTC MINNEAPOLIS ARTCC AT 651-463-5588.

Instrument Procedures

There are no published instrument procedures at NA81.

Some nearby airports with instrument procedures:

3H4 - Hillsboro Municipal Airport (16 nm S)
KGFK - Grand Forks International Airport (19 nm N)
4V4 - Northwood Municipal Airport-Vince Field (21 nm W)
KCKN - Crookston Municipal Airport - Kirkwood Field (23 nm NE)
KRDR - Grand Forks Air Force Base (24 nm NW)
 
Loc | Ops | Rwys | IFR | FBO | Links
Com | Nav | Svcs | Stats | Notes

Bismarck Aero Center
AirBoss

 
Area around NA81 (Central Valley Aviation Airport)
 
Road maps at: MapQuest Bing Google
 
Aerial photo
No photo
 
Sectional chart

 
Airport distance calculator
Flying to Central Valley Aviation Airport? Find the distance to fly.

From to NA81

Sunrise and sunset
Times for 03-Dec-2022
 Local
(UTC-6)
 Zulu
(UTC)
Morning civil twilight07:2413:24
Sunrise07:5913:59
Sunset16:3722:37
Evening civil twilight17:1323:13

Current date and time
Zulu (UTC)  04-Dec-2022 02:48:57
Local (UTC-6)  03-Dec-2022 20:48:57
 
METAR
KGFK 
20nm N 
040153Z 21004KT 10SM CLR M18/M20 A3014 RMK AO2 SLP233 T11781200
KCKN 
23nm NE 
040235Z 19007KT 10SM M17/M20 A3014 RMK AO2
KRDR 
24nm NW 
040155Z AUTO 22007KT 10SM CLR M16/M19 A3011 RMK AO2 SLP228 T11571190 $
TAF
KGFK 
20nm N 
031722Z 0318/0418 23013KT P6SM BKN070 FM032200 20009KT P6SM SCT100 FM040900 27010KT P6SM SCT180 FM041300 23010KT P6SM FEW250 WS020/29035KT
NOTAMs
Click for the latest NOTAMs
NOTAMs are issued by the DoD/FAA and will open in a separate window not controlled by AirNav.

 

 
 

Would you like to see your business listed on this page?

 If your business provides an interesting product or service to pilots, flight crews, aircraft, or users of the Central Valley Aviation Airport, you should consider listing it here.  To start the listing process, click on the button below
 
Add a business
 

Other Pages about Central Valley Aviation Airport

Update a link
 
Copyright © AirNav, LLC. All rights reserved. Privacy Policy  Contact